Time;durP1;ratioP1;P1;durP2;ratioP2;P2;SDS_P1;SDS_P2;PMS_P1;PMS_P2;Temp;Humidity;BMP_temperature;BMP_pressure;BME280_temperature;BME280_humidity;BME280_pressure;Samples;Min_cycle;Max_cycle;Signal;HPM_P1;HPM_P2
2022/07/06 00:01:20;;;;;;;2.40;2.20;;;24.50;61.80;;;;;;5114570;28;20476;-63
2022/07/06 00:03:46;;;;;;;2.30;2.10;;;24.50;61.70;;;;;;5114582;28;20392;-63
2022/07/06 00:06:12;;;;;;;2.40;2.03;;;24.50;61.50;;;;;;5114373;28;20414;-63
2022/07/06 00:08:38;;;;;;;2.40;2.20;;;24.50;61.50;;;;;;5113227;28;20388;-64
2022/07/06 00:11:04;;;;;;;2.63;2.10;;;24.50;61.50;;;;;;5112904;28;20409;-64
2022/07/06 00:13:30;;;;;;;3.35;2.00;;;24.50;61.50;;;;;;5114487;28;20403;-67
2022/07/06 00:15:56;;;;;;;2.72;1.90;;;24.50;61.50;;;;;;5114768;28;20385;-63
2022/07/06 00:18:21;;;;;;;2.27;2.00;;;24.50;61.60;;;;;;5114241;28;20404;-71
2022/07/06 00:20:47;;;;;;;2.63;2.03;;;24.40;61.80;;;;;;5114331;28;20388;-64
2022/07/06 00:23:13;;;;;;;2.50;2.30;;;24.40;61.70;;;;;;5113873;28;20387;-69
2022/07/06 00:25:38;;;;;;;3.13;2.23;;;24.40;61.80;;;;;;5114258;28;20445;-63
2022/07/06 00:28:04;;;;;;;2.83;1.95;;;24.50;61.80;;;;;;5114204;28;20873;-63
2022/07/06 00:30:30;;;;;;;22.65;3.03;;;24.40;61.60;;;;;;5114149;28;20500;-65
2022/07/06 00:32:57;;;;;;;5.90;1.95;;;24.40;61.30;;;;;;5113575;28;20384;-64
2022/07/06 00:35:24;;;;;;;5.75;2.33;;;24.40;61.60;;;;;;5114036;28;20381;-63
2022/07/06 00:37:49;;;;;;;3.92;1.80;;;24.40;61.60;;;;;;5113837;28;20400;-63
2022/07/06 00:40:15;;;;;;;4.70;2.03;;;24.50;61.50;;;;;;5113414;28;20407;-70
2022/07/06 00:42:42;;;;;;;3.35;2.03;;;24.50;61.50;;;;;;5113316;28;20459;-64
2022/07/06 00:45:09;;;;;;;5.50;2.00;;;24.50;61.20;;;;;;5113374;28;20457;-63
2022/07/06 00:47:35;;;;;;;4.00;2.13;;;24.40;61.20;;;;;;5113773;28;20464;-63
2022/07/06 00:50:13;;;;;;;3.28;2.03;;;24.50;61.00;;;;;;5113666;28;20471;-64
2022/07/06 00:52:44;;;;;;;3.92;2.00;;;24.40;61.00;;;;;;5113599;28;20387;-68
2022/07/06 00:55:10;;;;;;;4.45;2.17;;;24.40;61.00;;;;;;5113114;28;20745;-64
2022/07/06 00:57:36;;;;;;;2.63;1.95;;;24.40;61.10;;;;;;5113522;28;20396;-63
2022/07/06 01:00:08;;;;;;;3.35;2.08;;;24.40;61.00;;;;;;5113610;28;20476;-69
2022/07/06 01:02:35;;;;;;;5.63;2.30;;;24.40;61.30;;;;;;5113327;28;20376;-64
2022/07/06 01:05:01;;;;;;;3.20;2.10;;;24.40;61.40;;;;;;5112808;28;20403;-69
2022/07/06 01:07:28;;;;;;;2.80;2.20;;;24.40;61.40;;;;;;5113440;28;20384;-63
2022/07/06 01:09:55;;;;;;;2.10;1.90;;;24.40;61.30;;;;;;5113344;28;20380;-63
2022/07/06 01:12:21;;;;;;;2.13;1.90;;;24.40;61.40;;;;;;5113258;28;20384;-64
2022/07/06 01:14:47;;;;;;;3.60;2.03;;;24.40;61.30;;;;;;5111986;28;20485;-70
2022/07/06 01:17:14;;;;;;;3.40;2.03;;;24.40;61.30;;;;;;5110877;28;20467;-63
2022/07/06 01:19:40;;;;;;;1.92;1.80;;;24.40;61.20;;;;;;5112931;28;20416;-69
2022/07/06 01:22:06;;;;;;;2.00;1.80;;;24.40;61.20;;;;;;5113180;28;20389;-63
2022/07/06 01:24:34;;;;;;;2.80;1.92;;;24.40;61.10;;;;;;5112788;28;20393;-66
2022/07/06 01:27:00;;;;;;;2.88;1.90;;;24.40;61.10;;;;;;5112519;28;20870;-70
2022/07/06 01:29:26;;;;;;;2.63;1.90;;;24.40;60.90;;;;;;5112872;28;20391;-64
2022/07/06 01:31:51;;;;;;;2.17;1.80;;;24.40;61.10;;;;;;5112959;28;20391;-63
2022/07/06 01:34:18;;;;;;;2.30;2.10;;;24.40;61.10;;;;;;5112862;27;20856;-63
2022/07/06 01:36:44;;;;;;;2.25;2.00;;;24.40;61.00;;;;;;5112870;28;20377;-63
2022/07/06 01:39:10;;;;;;;2.50;1.90;;;24.40;61.10;;;;;;5112150;28;20412;-68
2022/07/06 01:41:37;;;;;;;2.88;1.92;;;24.40;61.20;;;;;;5112535;28;20377;-63
2022/07/06 01:44:03;;;;;;;1.90;1.70;;;24.40;61.20;;;;;;5111514;28;20850;-64
2022/07/06 01:46:29;;;;;;;2.70;1.80;;;24.40;61.30;;;;;;5112638;28;20463;-69
2022/07/06 01:48:54;;;;;;;2.17;1.88;;;24.40;61.30;;;;;;5112429;28;20537;-69
2022/07/06 01:51:20;;;;;;;2.40;2.20;;;24.40;61.30;;;;;;5112276;28;20395;-70
2022/07/06 01:53:46;;;;;;;2.58;2.20;;;24.40;61.30;;;;;;5112561;28;20887;-63
2022/07/06 01:56:12;;;;;;;2.17;1.70;;;24.40;61.30;;;;;;5111836;28;20372;-68
2022/07/06 01:58:39;;;;;;;2.33;1.70;;;24.40;61.20;;;;;;5112081;28;20421;-67
2022/07/06 02:01:12;;;;;;;2.37;2.00;;;24.40;61.30;;;;;;5111846;28;20769;-63
2022/07/06 02:03:38;;;;;;;1.80;1.70;;;24.40;61.30;;;;;;5112343;27;20393;-63
2022/07/06 02:06:05;;;;;;;2.40;1.90;;;24.40;61.20;;;;;;5112010;28;20441;-63
2022/07/06 02:08:31;;;;;;;2.50;2.10;;;24.30;61.10;;;;;;5112250;28;20392;-63
2022/07/06 02:10:57;;;;;;;2.10;1.90;;;24.40;61.20;;;;;;5112058;28;20407;-63
2022/07/06 02:13:23;;;;;;;2.10;1.90;;;24.30;61.30;;;;;;5111862;28;20424;-64
2022/07/06 02:15:49;;;;;;;2.38;1.90;;;24.30;61.20;;;;;;5112199;28;20396;-63
2022/07/06 02:18:15;;;;;;;2.55;1.73;;;24.30;61.30;;;;;;5111988;28;20873;-69
2022/07/06 02:20:41;;;;;;;2.20;1.95;;;24.30;61.40;;;;;;5112091;28;20453;-70
2022/07/06 02:23:06;;;;;;;2.30;1.90;;;24.40;61.40;;;;;;5111705;28;20764;-70
2022/07/06 02:25:32;;;;;;;2.20;2.00;;;24.40;61.60;;;;;;5111924;28;20396;-64
2022/07/06 02:27:58;;;;;;;2.05;1.80;;;24.30;61.50;;;;;;5111387;28;20381;-70
2022/07/06 02:30:23;;;;;;;1.93;1.70;;;24.40;61.60;;;;;;5111752;28;20384;-63
2022/07/06 02:32:49;;;;;;;2.00;1.80;;;24.40;61.70;;;;;;5111994;28;20530;-69
2022/07/06 02:35:15;;;;;;;2.50;1.90;;;24.40;61.60;;;;;;5110223;28;20444;-63
2022/07/06 02:37:40;;;;;;;2.63;1.60;;;24.40;61.70;;;;;;5110583;28;20924;-71
2022/07/06 02:40:06;;;;;;;1.88;1.63;;;24.30;61.90;;;;;;5110395;28;20479;-69
2022/07/06 02:42:32;;;;;;;5.55;2.10;;;24.30;61.70;;;;;;5111863;28;20508;-63
2022/07/06 02:44:58;;;;;;;6.15;1.90;;;24.30;61.60;;;;;;5111690;28;20909;-64
2022/07/06 02:47:23;;;;;;;6.03;2.10;;;24.30;61.60;;;;;;5111564;28;20383;-64
2022/07/06 02:49:49;;;;;;;5.30;2.03;;;24.30;61.70;;;;;;5111644;28;20459;-63
2022/07/06 02:52:15;;;;;;;3.97;1.80;;;24.30;61.60;;;;;;5111716;28;20385;-63
2022/07/06 02:54:40;;;;;;;2.97;1.90;;;24.30;61.70;;;;;;5111770;28;20733;-64
2022/07/06 02:57:06;;;;;;;2.90;1.80;;;24.30;61.60;;;;;;5111233;28;20384;-63
2022/07/06 02:59:31;;;;;;;3.57;1.97;;;24.30;61.60;;;;;;5111596;28;20416;-63
2022/07/06 03:01:57;;;;;;;2.93;1.77;;;24.30;61.70;;;;;;5111683;28;20746;-63
2022/07/06 03:04:22;;;;;;;3.25;1.80;;;24.30;61.70;;;;;;5110155;28;20400;-70
2022/07/06 03:06:49;;;;;;;3.45;2.10;;;24.30;61.50;;;;;;5110335;28;20388;-63
2022/07/06 03:09:14;;;;;;;3.45;2.00;;;24.30;61.80;;;;;;5110989;28;20397;-70
2022/07/06 03:11:40;;;;;;;3.27;1.93;;;24.30;62.40;;;;;;5111432;28;20380;-70
2022/07/06 03:14:06;;;;;;;4.90;2.37;;;24.40;62.40;;;;;;5111501;28;20947;-63
2022/07/06 03:16:32;;;;;;;2.28;2.08;;;24.40;62.90;;;;;;5111385;28;20494;-67
2022/07/06 03:18:58;;;;;;;3.22;2.00;;;24.30;62.70;;;;;;5111255;28;20898;-64
2022/07/06 03:21:25;;;;;;;4.30;2.30;;;24.30;62.00;;;;;;5111119;28;20467;-70
2022/07/06 03:23:50;;;;;;;4.07;2.28;;;24.40;61.90;;;;;;5111473;28;20393;-63
2022/07/06 03:26:16;;;;;;;4.40;2.43;;;24.30;62.90;;;;;;5111319;28;20719;-66
2022/07/06 03:28:42;;;;;;;6.35;2.45;;;24.40;62.40;;;;;;5111407;28;20750;-64
2022/07/06 03:31:08;;;;;;;4.77;2.50;;;24.40;62.30;;;;;;5110943;28;20866;-63
2022/07/06 03:33:33;;;;;;;3.75;2.53;;;24.40;61.70;;;;;;5111271;28;20715;-63
2022/07/06 03:35:59;;;;;;;3.60;2.47;;;24.40;61.50;;;;;;5111406;28;20425;-64
2022/07/06 03:38:24;;;;;;;4.60;2.40;;;24.40;61.40;;;;;;5111233;28;20449;-70
2022/07/06 03:40:50;;;;;;;5.13;2.70;;;24.30;61.20;;;;;;5113765;28;20396;-71
2022/07/06 03:43:16;;;;;;;7.07;3.00;;;24.30;60.50;;;;;;5114583;28;20380;-63
2022/07/06 03:45:42;;;;;;;8.25;2.75;;;24.30;61.20;;;;;;5115016;28;20426;-69
2022/07/06 03:48:07;;;;;;;3.97;2.40;;;24.30;61.10;;;;;;5113670;28;20424;-69
2022/07/06 03:50:33;;;;;;;3.40;2.60;;;24.40;60.70;;;;;;5114854;28;20385;-67
2022/07/06 03:52:58;;;;;;;5.13;2.50;;;24.30;60.30;;;;;;5114685;28;20384;-68
2022/07/06 03:55:24;;;;;;;4.30;2.50;;;24.30;60.00;;;;;;5114684;28;20442;-69
2022/07/06 03:57:50;;;;;;;4.07;2.40;;;24.30;60.00;;;;;;5114613;28;20403;-63
2022/07/06 04:00:15;;;;;;;5.45;2.40;;;24.30;59.80;;;;;;5114574;28;20461;-70
2022/07/06 04:02:41;;;;;;;4.17;2.40;;;24.30;59.70;;;;;;5114751;27;20395;-63
2022/07/06 04:05:07;;;;;;;4.10;2.70;;;24.30;59.70;;;;;;5114227;28;20808;-71
2022/07/06 04:07:33;;;;;;;3.42;2.38;;;24.20;59.50;;;;;;5114223;28;20409;-66
2022/07/06 04:09:59;;;;;;;4.57;2.90;;;24.20;59.50;;;;;;5113902;28;20912;-68
2022/07/06 04:12:24;;;;;;;2.97;2.63;;;24.20;59.00;;;;;;5114288;28;20385;-70
2022/07/06 04:14:50;;;;;;;7.75;3.00;;;24.20;59.20;;;;;;5114346;28;20522;-65
2022/07/06 04:20:00;;;;;;;6.45;3.00;;;24.20;58.90;;;;;;5114310;28;20930;-70
2022/07/06 04:22:26;;;;;;;6.23;3.00;;;24.20;58.80;;;;;;5114272;28;20392;-65
2022/07/06 04:24:52;;;;;;;4.45;2.80;;;24.10;58.60;;;;;;5114198;28;20889;-69
2022/07/06 04:27:18;;;;;;;7.30;2.80;;;24.10;58.40;;;;;;5113719;28;20415;-70
2022/07/06 04:29:43;;;;;;;5.53;2.60;;;24.10;58.60;;;;;;5114086;28;20510;-65
2022/07/06 04:32:09;;;;;;;9.13;2.78;;;24.10;58.30;;;;;;5114087;28;20380;-64
2022/07/06 04:34:35;;;;;;;6.03;2.60;;;24.00;58.40;;;;;;5113989;28;20376;-69
2022/07/06 04:37:00;;;;;;;6.13;2.90;;;24.10;58.60;;;;;;5113806;28;20867;-63
2022/07/06 04:39:26;;;;;;;3.33;2.70;;;24.00;58.50;;;;;;5112189;28;20412;-68
2022/07/06 04:41:52;;;;;;;4.13;2.73;;;24.00;58.60;;;;;;5113876;28;20922;-66
2022/07/06 04:44:17;;;;;;;4.80;2.80;;;24.00;58.70;;;;;;5112165;28;20424;-69
2022/07/06 04:46:43;;;;;;;3.53;2.50;;;24.00;58.70;;;;;;5113228;28;20449;-64
2022/07/06 04:49:09;;;;;;;5.90;2.70;;;24.00;58.90;;;;;;5113170;28;20389;-62
2022/07/06 04:51:34;;;;;;;5.22;2.83;;;24.00;59.20;;;;;;5112636;28;20381;-68
2022/07/06 04:54:00;;;;;;;3.65;2.58;;;24.10;60.10;;;;;;5113535;28;20758;-68
2022/07/06 04:56:25;;;;;;;4.40;2.80;;;24.10;59.50;;;;;;5115292;27;20391;-68
2022/07/06 04:58:51;;;;;;;4.03;2.75;;;24.10;60.60;;;;;;5113188;28;20431;-63
2022/07/06 05:01:17;;;;;;;4.20;2.80;;;24.00;59.30;;;;;;5112871;28;20452;-66
2022/07/06 05:03:42;;;;;;;5.07;3.00;;;24.00;59.30;;;;;;5113255;28;20865;-63
2022/07/06 05:06:08;;;;;;;3.38;2.70;;;24.00;59.60;;;;;;5112956;28;20400;-64
2022/07/06 05:08:36;;;;;;;3.70;2.40;;;24.10;59.60;;;;;;5110756;28;20810;-68
2022/07/06 05:11:02;;;;;;;3.87;2.40;;;24.10;59.80;;;;;;5115716;27;20397;-64
2022/07/06 05:13:27;;;;;;;4.13;2.58;;;24.10;60.10;;;;;;5120683;27;20388;-63
2022/07/06 05:15:53;;;;;;;4.73;2.67;;;24.00;60.20;;;;;;5113112;28;20396;-63
2022/07/06 05:18:18;;;;;;;3.43;2.50;;;24.10;60.20;;;;;;5112938;28;20408;-63
2022/07/06 05:20:44;;;;;;;5.32;2.40;;;24.10;60.50;;;;;;5112987;28;20400;-63
2022/07/06 05:23:10;;;;;;;3.73;2.20;;;24.10;60.30;;;;;;5112617;28;20364;-66
2022/07/06 05:25:36;;;;;;;3.45;2.50;;;24.10;60.20;;;;;;5112889;28;20750;-68
2022/07/06 05:28:02;;;;;;;3.40;2.38;;;24.00;60.30;;;;;;5113017;28;20471;-63
2022/07/06 05:30:28;;;;;;;2.88;2.40;;;24.10;60.40;;;;;;5112694;28;20373;-66
2022/07/06 05:32:54;;;;;;;4.05;2.70;;;24.10;60.80;;;;;;5113826;27;20385;-63
2022/07/06 05:35:19;;;;;;;3.60;2.40;;;24.10;60.40;;;;;;5131699;27;20374;-69
2022/07/06 05:37:45;;;;;;;3.25;2.50;;;24.10;60.30;;;;;;5122212;27;20401;-63
2022/07/06 05:40:11;;;;;;;3.73;2.50;;;24.10;60.40;;;;;;5120764;27;20758;-69
2022/07/06 05:42:37;;;;;;;3.00;2.30;;;24.10;61.10;;;;;;5125670;27;20435;-63
2022/07/06 05:45:04;;;;;;;2.77;2.40;;;24.10;61.10;;;;;;5131825;27;20386;-67
2022/07/06 05:50:14;;;;;;;3.40;2.45;;;24.10;60.40;;;;;;5132663;27;20858;-63
2022/07/06 05:52:44;;;;;;;2.53;2.33;;;24.10;60.20;;;;;;5133731;27;20383;-67
2022/07/06 05:55:11;;;;;;;3.20;2.60;;;24.10;60.00;;;;;;5126311;27;20456;-68
2022/07/06 05:57:38;;;;;;;3.38;2.10;;;24.10;60.00;;;;;;5110938;28;20389;-68
2022/07/06 06:00:08;;;;;;;2.47;2.05;;;24.10;59.70;;;;;;5112289;28;20404;-68
2022/07/06 06:02:40;;;;;;;2.30;2.10;;;24.10;60.20;;;;;;5114866;27;20388;-67
2022/07/06 06:05:10;;;;;;;2.85;2.20;;;24.10;59.60;;;;;;5119679;27;20398;-68
2022/07/06 06:07:38;;;;;;;2.77;2.10;;;24.10;59.70;;;;;;5116915;27;20430;-68
2022/07/06 06:10:10;;;;;;;3.33;2.40;;;24.10;59.60;;;;;;5119026;27;20388;-64
2022/07/06 06:12:36;;;;;;;2.90;2.40;;;24.10;59.60;;;;;;5131973;27;20387;-67
2022/07/06 06:15:02;;;;;;;2.40;2.20;;;24.10;59.70;;;;;;5132549;27;20469;-67
2022/07/06 06:17:28;;;;;;;2.97;2.43;;;24.10;59.90;;;;;;5109064;27;20388;-64
2022/07/06 06:19:54;;;;;;;2.95;2.20;;;24.10;60.00;;;;;;5111601;28;20415;-67
2022/07/06 06:22:19;;;;;;;3.03;2.33;;;24.10;60.00;;;;;;5111440;28;20377;-68
2022/07/06 06:24:45;;;;;;;3.10;2.47;;;24.10;60.00;;;;;;5111631;28;20412;-63
2022/07/06 06:27:11;;;;;;;2.50;2.30;;;24.10;60.10;;;;;;5104875;28;20372;-67
2022/07/06 06:29:37;;;;;;;2.25;2.00;;;24.10;59.70;;;;;;5111721;28;20547;-68
2022/07/06 06:32:05;;;;;;;2.40;1.95;;;24.10;60.00;;;;;;5111783;28;20923;-67
2022/07/06 06:34:31;;;;;;;2.30;2.03;;;24.10;59.40;;;;;;5111827;28;20395;-69
2022/07/06 06:36:56;;;;;;;2.55;2.00;;;24.20;59.50;;;;;;5111592;28;20384;-69
2022/07/06 06:39:22;;;;;;;3.20;2.10;;;24.20;59.30;;;;;;5111012;28;20438;-69
2022/07/06 06:41:48;;;;;;;2.45;2.25;;;24.10;59.50;;;;;;5111892;28;20399;-68
2022/07/06 06:44:14;;;;;;;3.83;2.47;;;24.10;59.40;;;;;;5111388;28;20890;-69
2022/07/06 06:46:41;;;;;;;4.28;2.40;;;24.10;59.30;;;;;;5111173;28;20881;-69
2022/07/06 06:49:07;;;;;;;3.78;2.40;;;24.10;59.50;;;;;;5110980;28;20388;-68
2022/07/06 06:51:33;;;;;;;2.50;2.13;;;24.10;59.20;;;;;;5111286;28;20396;-68
2022/07/06 06:53:59;;;;;;;2.40;2.20;;;24.10;59.10;;;;;;5101305;28;20432;-69
2022/07/06 06:56:25;;;;;;;3.47;2.03;;;24.10;58.90;;;;;;5106992;28;20444;-68
2022/07/06 06:58:51;;;;;;;2.53;2.10;;;24.20;59.00;;;;;;5107289;28;20404;-64
2022/07/06 07:01:16;;;;;;;2.40;2.10;;;24.20;59.20;;;;;;5107660;28;20824;-69
2022/07/06 07:03:42;;;;;;;2.75;2.45;;;24.10;59.60;;;;;;5107451;28;20544;-69
2022/07/06 07:06:08;;;;;;;2.83;2.40;;;24.20;59.80;;;;;;5107247;28;20416;-68
2022/07/06 07:08:33;;;;;;;2.70;2.40;;;24.20;59.90;;;;;;5107583;28;21199;-65
2022/07/06 07:10:59;;;;;;;4.13;2.10;;;24.20;60.00;;;;;;5107900;28;20397;-67
2022/07/06 07:13:25;;;;;;;2.92;2.10;;;24.10;60.00;;;;;;5107241;28;20372;-68
2022/07/06 07:15:50;;;;;;;2.55;2.30;;;24.20;60.00;;;;;;5110656;28;20424;-65
2022/07/06 07:18:16;;;;;;;3.23;2.40;;;24.20;60.50;;;;;;5111713;28;20471;-63
2022/07/06 07:20:42;;;;;;;4.38;2.90;;;24.20;60.70;;;;;;5112149;28;20486;-66
2022/07/06 07:23:07;;;;;;;3.20;2.90;;;24.20;64.10;;;;;;5110104;28;20464;-64
2022/07/06 07:25:34;;;;;;;2.93;2.67;;;24.30;64.00;;;;;;5111412;28;20733;-64
2022/07/06 07:27:59;;;;;;;2.45;2.25;;;24.30;63.50;;;;;;5112034;28;20379;-63
2022/07/06 07:30:25;;;;;;;2.60;2.40;;;24.30;62.70;;;;;;5110887;28;20395;-70
2022/07/06 07:32:51;;;;;;;2.30;2.10;;;24.30;62.50;;;;;;5112342;28;20769;-68
2022/07/06 07:35:17;;;;;;;2.50;2.30;;;24.30;62.50;;;;;;5110939;28;20872;-65
2022/07/06 07:37:42;;;;;;;3.20;2.10;;;24.30;62.00;;;;;;5111724;28;21240;-64
2022/07/06 07:40:09;;;;;;;2.88;2.20;;;24.30;61.90;;;;;;5111287;28;20769;-69
2022/07/06 07:42:35;;;;;;;3.00;2.28;;;24.30;62.10;;;;;;5111633;28;20415;-64
2022/07/06 07:45:01;;;;;;;2.30;2.10;;;24.30;62.10;;;;;;5111547;28;21019;-64
2022/07/06 07:47:26;;;;;;;3.07;2.00;;;24.30;62.00;;;;;;5109609;28;20971;-64
2022/07/06 07:49:52;;;;;;;2.35;2.15;;;24.30;61.80;;;;;;5112455;27;20402;-64
2022/07/06 07:52:18;;;;;;;2.40;2.20;;;24.30;61.70;;;;;;5111156;28;20380;-68
2022/07/06 07:54:43;;;;;;;2.20;2.00;;;24.40;61.80;;;;;;5110816;28;20397;-68
2022/07/06 07:57:10;;;;;;;2.90;2.28;;;24.40;61.70;;;;;;5110124;28;20887;-64
2022/07/06 07:59:35;;;;;;;2.40;2.15;;;24.30;61.60;;;;;;5110868;28;20412;-71
2022/07/06 08:02:03;;;;;;;2.40;2.20;;;24.40;61.60;;;;;;5110855;27;20431;-65
2022/07/06 08:04:30;;;;;;;2.60;2.20;;;24.40;62.10;;;;;;5108336;28;20464;-64
2022/07/06 08:06:56;;;;;;;3.05;2.13;;;24.40;61.50;;;;;;5110938;28;20384;-64
2022/07/06 08:09:22;;;;;;;4.65;2.30;;;24.40;61.40;;;;;;5110513;28;21211;-65
2022/07/06 08:11:49;;;;;;;3.30;2.10;;;24.40;61.40;;;;;;5110957;27;20467;-64
2022/07/06 08:14:16;;;;;;;18.15;4.60;;;24.40;61.30;;;;;;5112101;28;20385;-64
2022/07/06 08:16:42;;;;;;;73.57;24.48;;;24.40;61.30;;;;;;5114722;28;20380;-69
2022/07/06 08:19:08;;;;;;;102.90;50.75;;;24.50;61.70;;;;;;5113335;28;20409;-64
2022/07/06 08:21:33;;;;;;;105.03;63.90;;;24.50;62.00;;;;;;5113381;27;20384;-67
2022/07/06 08:24:00;;;;;;;94.82;58.75;;;24.60;61.60;;;;;;5114402;28;20384;-66
2022/07/06 08:26:26;;;;;;;73.43;43.50;;;24.60;61.50;;;;;;5113651;28;20391;-70
2022/07/06 08:28:52;;;;;;;59.05;36.03;;;24.60;61.40;;;;;;5113932;28;20380;-69
2022/07/06 08:31:18;;;;;;;53.23;30.50;;;24.60;61.30;;;;;;5112971;28;20456;-65
2022/07/06 08:33:43;;;;;;;46.60;25.38;;;24.70;61.30;;;;;;5113235;28;20400;-70
2022/07/06 08:36:11;;;;;;;41.13;23.40;;;24.70;61.20;;;;;;5113079;28;20384;-68
2022/07/06 08:38:36;;;;;;;36.90;21.17;;;24.70;61.30;;;;;;5111315;28;20415;-69
2022/07/06 08:41:05;;;;;;;34.10;19.98;;;24.70;61.20;;;;;;5113947;28;20392;-64
2022/07/06 08:43:32;;;;;;;33.47;20.17;;;24.60;61.10;;;;;;5105165;27;20390;-64
2022/07/06 08:45:58;;;;;;;32.75;18.45;;;24.60;61.10;;;;;;5110690;28;20396;-68
2022/07/06 08:48:24;;;;;;;29.77;17.83;;;24.60;61.60;;;;;;5112308;28;20914;-64
2022/07/06 08:50:50;;;;;;;31.63;17.58;;;24.60;61.00;;;;;;5113686;28;20380;-70
2022/07/06 08:53:17;;;;;;;29.35;17.35;;;24.60;60.90;;;;;;5113359;28;20376;-64
2022/07/06 08:55:43;;;;;;;28.80;16.52;;;24.60;60.80;;;;;;5112005;28;20392;-65
2022/07/06 08:58:09;;;;;;;30.58;16.48;;;24.60;60.70;;;;;;5111590;28;20404;-64
2022/07/06 09:00:36;;;;;;;25.42;14.95;;;24.60;60.50;;;;;;5112095;28;20439;-70
2022/07/06 09:03:02;;;;;;;24.00;14.68;;;24.60;60.50;;;;;;5113449;28;20394;-70
2022/07/06 09:05:29;;;;;;;21.73;13.63;;;24.60;60.50;;;;;;5112758;28;20412;-64
2022/07/06 09:07:55;;;;;;;23.40;13.15;;;24.60;60.40;;;;;;5111695;28;20893;-64
2022/07/06 09:10:22;;;;;;;22.58;12.50;;;24.60;60.30;;;;;;5113182;28;20758;-69
2022/07/06 09:12:48;;;;;;;21.35;11.95;;;24.60;60.30;;;;;;5113562;28;20392;-70
2022/07/06 09:15:14;;;;;;;20.10;11.60;;;24.60;60.00;;;;;;5112964;28;20416;-64
2022/07/06 09:17:42;;;;;;;20.30;10.93;;;24.60;60.00;;;;;;5111679;28;20431;-64
2022/07/06 09:20:12;;;;;;;17.80;10.88;;;24.60;60.00;;;;;;5112682;28;20412;-67
2022/07/06 09:22:38;;;;;;;17.60;10.90;;;24.60;60.00;;;;;;5112730;28;20392;-64
2022/07/06 09:25:12;;;;;;;17.30;10.23;;;24.60;59.80;;;;;;5111602;28;20762;-64
2022/07/06 09:27:49;;;;;;;14.80;9.40;;;24.60;59.70;;;;;;5112544;28;20979;-66
2022/07/06 09:30:16;;;;;;;17.55;9.32;;;24.60;59.70;;;;;;5112719;28;20396;-69
2022/07/06 09:32:49;;;;;;;16.58;9.55;;;24.60;59.80;;;;;;5112907;28;20387;-66
2022/07/06 09:35:29;;;;;;;14.97;8.80;;;24.60;59.80;;;;;;5112773;28;20576;-64
2022/07/06 09:38:01;;;;;;;14.18;8.50;;;24.60;59.70;;;;;;5112021;28;20452;-69
2022/07/06 09:40:27;;;;;;;13.48;8.02;;;24.60;59.70;;;;;;5112241;28;20487;-68
2022/07/06 09:43:18;;;;;;;14.00;8.03;;;24.70;59.70;;;;;;5111390;28;20468;-66
2022/07/06 09:45:46;;;;;;;13.68;8.25;;;24.60;59.70;;;;;;5112871;28;20865;-64
2022/07/06 09:48:23;;;;;;;11.85;7.63;;;24.60;59.60;;;;;;5111189;28;20992;-70
2022/07/06 09:50:53;;;;;;;13.38;7.32;;;24.60;59.60;;;;;;5111051;28;20823;-70
2022/07/06 09:53:20;;;;;;;10.70;7.17;;;24.60;59.50;;;;;;5110520;28;20380;-64
2022/07/06 09:55:47;;;;;;;11.88;6.95;;;24.60;59.40;;;;;;5110854;28;20750;-69
2022/07/06 09:58:13;;;;;;;12.15;7.28;;;24.60;59.50;;;;;;5110904;28;20397;-65
2022/07/06 10:00:39;;;;;;;10.43;6.78;;;24.60;59.60;;;;;;5112423;28;20392;-66
2022/07/06 10:03:05;;;;;;;10.00;6.60;;;24.60;59.50;;;;;;5112169;28;20383;-70
2022/07/06 10:05:32;;;;;;;10.23;6.13;;;24.60;59.40;;;;;;5111527;28;20870;-64
2022/07/06 10:08:01;;;;;;;9.23;6.20;;;24.60;59.30;;;;;;5112217;28;20387;-65
2022/07/06 10:10:29;;;;;;;9.32;6.13;;;24.60;59.40;;;;;;5112158;28;20396;-64
2022/07/06 10:12:58;;;;;;;8.30;5.90;;;24.60;59.40;;;;;;5110919;28;20562;-64
2022/07/06 10:15:26;;;;;;;9.13;6.03;;;24.60;59.30;;;;;;5111523;28;20407;-64
2022/07/06 10:17:54;;;;;;;8.93;5.53;;;24.60;59.30;;;;;;5111980;27;20400;-64
2022/07/06 10:20:20;;;;;;;7.10;4.70;;;24.60;59.30;;;;;;5110455;28;20395;-69
2022/07/06 10:22:50;;;;;;;7.35;5.18;;;24.60;59.10;;;;;;5112029;28;20388;-64
2022/07/06 10:25:17;;;;;;;7.28;5.03;;;24.60;59.30;;;;;;5110485;28;20784;-66
2022/07/06 10:27:46;;;;;;;8.13;5.13;;;24.60;59.00;;;;;;5112607;28;20411;-64
2022/07/06 10:30:12;;;;;;;6.73;5.10;;;24.60;59.20;;;;;;5111704;28;20768;-70
2022/07/06 10:32:40;;;;;;;8.57;5.00;;;24.60;59.30;;;;;;5111864;28;20742;-65
2022/07/06 10:35:06;;;;;;;7.90;4.30;;;24.60;59.30;;;;;;5102459;28;20498;-65
2022/07/06 10:37:33;;;;;;;6.38;4.15;;;24.60;59.30;;;;;;5106854;28;20463;-69
2022/07/06 10:42:53;;;;;;;7.75;4.18;;;24.60;59.30;;;;;;5116428;27;20363;-67
2022/07/06 10:45:40;;;;;;;6.85;3.90;;;24.60;59.60;;;;;;5114076;28;20396;-67
2022/07/06 10:48:12;;;;;;;5.93;3.95;;;24.60;59.80;;;;;;5121048;28;20387;-65
2022/07/06 10:50:46;;;;;;;6.78;4.07;;;24.70;60.30;;;;;;5123198;27;20407;-65
2022/07/06 10:53:13;;;;;;;6.15;4.10;;;24.70;60.10;;;;;;5116027;27;20415;-64
2022/07/06 10:55:40;;;;;;;4.95;3.70;;;24.70;60.30;;;;;;5110343;28;20777;-67
2022/07/06 10:58:06;;;;;;;7.88;4.30;;;24.70;60.20;;;;;;5109202;28;20526;-65
2022/07/06 11:00:51;;;;;;;5.00;3.63;;;24.70;60.10;;;;;;5114007;27;20503;-67
2022/07/06 11:03:33;;;;;;;5.65;3.70;;;24.70;60.00;;;;;;5117363;27;20421;-67
2022/07/06 11:06:07;;;;;;;4.60;3.67;;;24.70;60.00;;;;;;5110270;28;20392;-66
2022/07/06 11:08:51;;;;;;;5.27;3.53;;;24.70;60.00;;;;;;5109244;28;20419;-66
2022/07/06 11:11:22;;;;;;;4.50;3.70;;;24.70;59.90;;;;;;5109237;28;20949;-68
2022/07/06 11:13:55;;;;;;;5.47;3.42;;;24.70;59.90;;;;;;5111210;28;20388;-67
2022/07/06 11:16:24;;;;;;;4.72;3.60;;;24.70;59.80;;;;;;5111295;28;20392;-70
2022/07/06 11:19:13;;;;;;;6.25;3.63;;;24.70;59.80;;;;;;5110153;28;20396;-64
2022/07/06 11:21:51;;;;;;;5.63;3.40;;;24.70;59.80;;;;;;5108902;28;20392;-67
2022/07/06 11:24:18;;;;;;;3.80;3.25;;;24.70;59.70;;;;;;5107128;28;20404;-68
2022/07/06 11:26:46;;;;;;;4.68;3.45;;;24.70;59.60;;;;;;5110329;28;20849;-69
2022/07/06 11:29:13;;;;;;;4.93;3.17;;;24.70;59.60;;;;;;5110096;28;20400;-65
2022/07/06 11:31:41;;;;;;;4.97;3.40;;;24.80;59.60;;;;;;5109657;28;21213;-71
2022/07/06 11:34:10;;;;;;;4.53;3.25;;;24.70;59.40;;;;;;5109550;28;20411;-64
2022/07/06 11:36:36;;;;;;;3.90;3.05;;;24.80;59.50;;;;;;5110492;28;20396;-68
2022/07/06 11:39:02;;;;;;;4.00;3.25;;;24.80;59.40;;;;;;5111587;28;20423;-64
2022/07/06 11:41:28;;;;;;;3.45;3.00;;;24.80;59.40;;;;;;5109470;28;20472;-66
2022/07/06 11:43:54;;;;;;;4.43;3.30;;;24.80;59.90;;;;;;5110194;28;20487;-64
2022/07/06 11:46:37;;;;;;;5.45;2.92;;;24.80;59.50;;;;;;5110980;28;20384;-71
2022/07/06 11:49:05;;;;;;;6.50;3.03;;;24.80;59.70;;;;;;5110366;27;20499;-69
2022/07/06 11:51:34;;;;;;;3.25;2.70;;;24.80;59.50;;;;;;5111572;28;20467;-69
2022/07/06 11:54:07;;;;;;;3.92;2.80;;;24.80;59.50;;;;;;5111359;28;20404;-69
2022/07/06 11:56:34;;;;;;;4.00;2.58;;;24.80;59.40;;;;;;5111280;28;20467;-70
2022/07/06 11:59:00;;;;;;;4.88;2.60;;;24.80;59.30;;;;;;5111201;28;20415;-68
2022/07/06 12:01:30;;;;;;;4.93;2.70;;;24.80;59.30;;;;;;5112605;28;20471;-64
2022/07/06 12:04:01;;;;;;;4.03;2.60;;;24.80;59.20;;;;;;5113696;28;20819;-69
2022/07/06 12:06:28;;;;;;;4.03;2.60;;;24.80;59.30;;;;;;5112812;28;20904;-68
2022/07/06 12:08:58;;;;;;;5.07;2.75;;;24.80;59.20;;;;;;5113791;28;20384;-64
2022/07/06 12:11:24;;;;;;;3.90;2.85;;;24.80;59.20;;;;;;5113746;28;20385;-70
2022/07/06 12:13:51;;;;;;;3.28;2.90;;;24.80;59.10;;;;;;5113758;28;20392;-69
2022/07/06 12:16:18;;;;;;;3.88;2.72;;;24.80;59.10;;;;;;5113802;28;20385;-67
2022/07/06 12:18:45;;;;;;;3.30;2.60;;;24.80;59.00;;;;;;5113739;28;20396;-69
2022/07/06 12:21:16;;;;;;;3.53;2.87;;;24.80;59.10;;;;;;5113878;28;20439;-63
2022/07/06 12:23:44;;;;;;;4.18;2.70;;;24.80;59.10;;;;;;5111494;28;20380;-68
2022/07/06 12:26:10;;;;;;;3.38;2.40;;;24.90;59.10;;;;;;5113730;28;20388;-70
2022/07/06 12:28:37;;;;;;;2.80;2.60;;;24.90;58.90;;;;;;5113676;28;20377;-69
2022/07/06 12:31:03;;;;;;;3.25;2.30;;;24.90;59.10;;;;;;5113109;28;20423;-68
2022/07/06 12:33:29;;;;;;;2.90;2.53;;;24.90;58.80;;;;;;5113152;28;20395;-69
2022/07/06 12:35:55;;;;;;;3.37;2.53;;;24.90;58.80;;;;;;5114093;28;20772;-69
2022/07/06 12:38:27;;;;;;;3.15;2.60;;;24.90;59.50;;;;;;5113704;28;20400;-65
2022/07/06 12:40:53;;;;;;;3.42;2.85;;;24.90;58.70;;;;;;5114213;28;20389;-65
2022/07/06 12:43:39;;;;;;;2.63;2.40;;;24.90;58.80;;;;;;5113747;28;20368;-69
2022/07/06 12:46:38;;;;;;;3.70;2.70;;;24.90;58.90;;;;;;5113634;28;20380;-66
2022/07/06 12:49:12;;;;;;;3.10;2.60;;;24.90;58.90;;;;;;5090227;28;20530;-64
2022/07/06 12:51:51;;;;;;;3.30;2.50;;;24.90;58.80;;;;;;5099709;28;20385;-66
2022/07/06 12:54:17;;;;;;;2.92;2.72;;;25.00;58.80;;;;;;5093125;28;20413;-67